EIKI weather

CLOSED Killenaule Airport
Killenaule, County Tipperary, Ireland

Public forecast

Using degrees Celsius for public forecast. Weather courtesy of forecast.io.

METAR (pilot weather report)

Report is more than 6 hours old.

Closest report is Waterford Airport, 33.4 nm (61.9 km) SE. Retrieved 2019/06/25 20:30 UTC (7 hours ago):

EIWF 252030Z 09007KT 9999 SCT022 ///// Q1024

TAF (pilot weather forecast)

Forecast is more than 12 hours old.

Closest forecast is Shannon Airport, 47.2 nm (87.4 km) W. Retrieved 2019/06/25 00:11 UTC (1 day ago):

TAF EINN 252300Z 2600/2624 05010KT 9999 FEW020 PROB30 TEMPO 2601/2604 3000 BR